Time;durP1;ratioP1;P1;durP2;ratioP2;P2;SDS_P1;SDS_P2;PMS_P1;PMS_P2;Temp;Humidity;BMP_temperature;BMP_pressure;BME280_temperature;BME280_humidity;BME280_pressure;Samples;Min_cycle;Max_cycle;Signal;HPM_P1;HPM_P2
2023/11/04 00:01:55;;;;;;;2.60;1.30;;;;;;;10.62;100.00;97856.30;106122;1256;100078;-78
2023/11/04 00:04:40;;;;;;;2.50;1.40;;;;;;;10.54;100.00;97865.48;105921;1260;99078;-79
2023/11/04 00:07:26;;;;;;;1.30;1.20;;;;;;;10.45;100.00;97879.21;105810;1262;98708;-78
2023/11/04 00:10:11;;;;;;;3.10;1.10;;;;;;;10.36;100.00;97885.48;106421;1262;98429;-78
2023/11/04 00:12:57;;;;;;;2.10;1.30;;;;;;;10.30;100.00;97891.34;106339;1260;101354;-78
2023/11/04 00:15:44;;;;;;;2.10;1.30;;;;;;;10.22;100.00;97893.55;105953;1262;99133;-78
2023/11/04 00:18:30;;;;;;;1.60;1.40;;;;;;;10.15;100.00;97898.81;106376;1261;99056;-79
2023/11/04 00:21:15;;;;;;;1.80;1.20;;;;;;;10.09;100.00;97908.25;106624;1263;97875;-80
2023/11/04 00:24:02;;;;;;;3.70;1.20;;;;;;;10.07;100.00;97914.58;106444;1259;97694;-80
2023/11/04 00:26:47;;;;;;;1.90;0.90;;;;;;;10.05;100.00;97920.28;106831;1263;102686;-79
2023/11/04 00:29:33;;;;;;;2.10;1.00;;;;;;;10.03;100.00;97928.02;106799;1262;99655;-80
2023/11/04 00:32:18;;;;;;;1.40;0.90;;;;;;;9.99;100.00;97935.27;106841;1260;97885;-80
2023/11/04 00:35:04;;;;;;;1.50;1.20;;;;;;;9.96;100.00;97942.52;106550;1258;97877;-78
2023/11/04 00:37:50;;;;;;;2.00;0.90;;;;;;;9.91;100.00;97953.63;105872;1262;98580;-78
2023/11/04 00:40:35;;;;;;;1.60;0.90;;;;;;;9.87;100.00;97965.06;105899;1260;101356;-79
2023/11/04 00:43:21;;;;;;;3.30;1.30;;;;;;;9.80;100.00;97978.75;105852;1260;100349;-78
2023/11/04 00:46:07;;;;;;;1.20;0.80;;;;;;;9.73;100.00;97988.55;105938;1264;98480;-78
2023/11/04 00:48:52;;;;;;;1.60;1.00;;;;;;;9.66;100.00;97996.04;105800;1262;97987;-78
2023/11/04 00:51:38;;;;;;;2.40;0.70;;;;;;;9.59;100.00;98000.67;106005;1263;98482;-78
2023/11/04 00:54:24;;;;;;;1.40;0.70;;;;;;;9.52;100.00;98010.71;105598;1263;101509;-79
2023/11/04 00:57:10;;;;;;;2.20;0.60;;;;;;;9.42;100.00;98014.44;105828;1262;99118;-78
2023/11/04 00:59:55;;;;;;;1.40;0.70;;;;;;;9.33;100.00;98016.53;105699;1258;98502;-77
2023/11/04 01:02:40;;;;;;;1.00;0.50;;;;;;;9.29;100.00;98029.29;105770;1273;97918;-78
2023/11/04 01:05:26;;;;;;;1.50;0.60;;;;;;;9.24;100.00;98035.35;105920;1263;97871;-78
2023/11/04 01:08:11;;;;;;;1.00;0.40;;;;;;;9.19;100.00;98041.56;105972;1272;101406;-79
2023/11/04 01:10:57;;;;;;;3.50;0.80;;;;;;;9.12;100.00;98051.33;105907;1264;99699;-79
2023/11/04 01:13:43;;;;;;;2.30;0.80;;;;;;;9.02;100.00;98060.20;105694;1268;107669;-78
2023/11/04 01:16:29;;;;;;;1.30;0.60;;;;;;;8.95;100.00;98065.30;105919;1260;97994;-78
2023/11/04 01:19:14;;;;;;;1.00;0.70;;;;;;;8.87;100.00;98069.00;105719;1263;97782;-78
2023/11/04 01:22:00;;;;;;;2.80;0.50;;;;;;;8.82;100.00;98078.91;105800;1264;101354;-79
2023/11/04 01:24:45;;;;;;;0.90;0.60;;;;;;;8.78;100.00;98086.10;105980;1260;99153;-79
2023/11/04 01:27:31;;;;;;;2.00;0.70;;;;;;;8.77;100.00;98097.18;105842;1260;98983;-78
2023/11/04 01:30:17;;;;;;;2.50;0.80;;;;;;;8.75;100.00;98101.61;106028;1257;97867;-78
2023/11/04 01:33:02;;;;;;;4.10;0.80;;;;;;;8.72;100.00;98109.14;105834;1263;97886;-78
2023/11/04 01:35:49;;;;;;;1.70;0.80;;;;;;;8.69;100.00;98118.35;105632;1264;101498;-80
2023/11/04 01:38:34;;;;;;;0.80;0.60;;;;;;;8.64;100.00;98124.28;105871;1263;99107;-79
2023/11/04 01:41:20;;;;;;;0.90;0.70;;;;;;;8.61;100.00;98127.42;105820;1263;97978;-79
2023/11/04 01:44:05;;;;;;;1.50;0.60;;;;;;;8.56;100.00;98126.80;105752;1263;98078;-80
2023/11/04 01:46:51;;;;;;;2.40;0.50;;;;;;;8.54;100.00;98127.01;106215;1263;98038;-78
2023/11/04 01:49:36;;;;;;;1.00;0.50;;;;;;;8.51;100.00;98131.91;106262;1260;101430;-78
2023/11/04 01:52:22;;;;;;;2.60;0.60;;;;;;;8.48;100.00;98133.60;105833;1263;100894;-78
2023/11/04 01:55:10;;;;;;;3.40;0.60;;;;;;;8.48;100.00;98140.74;105762;1257;97957;-78
2023/11/04 01:57:56;;;;;;;3.30;1.30;;;;;;;8.47;100.00;98144.13;105883;1260;97946;-79
2023/11/04 02:00:41;;;;;;;0.90;0.40;;;;;;;8.45;100.00;98145.33;106100;1257;97972;-79
2023/11/04 02:03:30;;;;;;;2.10;0.60;;;;;;;8.41;100.00;98151.09;105726;1257;102163;-78
2023/11/04 02:06:16;;;;;;;2.10;0.50;;;;;;;8.36;100.00;98156.02;105920;1263;99132;-78
2023/11/04 02:09:02;;;;;;;0.70;0.60;;;;;;;8.36;100.00;98153.33;105897;1260;97881;-78
2023/11/04 02:11:48;;;;;;;1.00;0.60;;;;;;;8.34;100.00;98158.32;105814;1263;99250;-78
2023/11/04 02:14:34;;;;;;;0.40;0.30;;;;;;;8.33;100.00;98160.63;105904;1261;99624;-78
2023/11/04 02:17:20;;;;;;;0.80;0.40;;;;;;;8.32;100.00;98165.30;105936;1257;101425;-79
2023/11/04 02:20:08;;;;;;;2.70;0.70;;;;;;;8.31;100.00;98172.95;105934;1258;99144;-79
2023/11/04 02:22:54;;;;;;;0.60;0.40;;;;;;;8.31;100.00;98178.14;105909;1257;98837;-78
2023/11/04 02:25:40;;;;;;;0.80;0.40;;;;;;;8.31;100.00;98182.98;105957;1257;98729;-78
2023/11/04 02:28:26;;;;;;;1.20;0.60;;;;;;;8.31;100.00;98186.55;105797;1265;99626;-79
2023/11/04 02:31:11;;;;;;;0.50;0.50;;;;;;;8.35;100.00;98191.13;105861;1261;101600;-78
2023/11/04 02:33:57;;;;;;;1.70;0.40;;;;;;;8.36;100.00;98195.58;105985;1258;99165;-77
2023/11/04 02:36:42;;;;;;;2.20;0.70;;;;;;;8.36;100.00;98201.34;105690;1263;97980;-78
2023/11/04 02:39:28;;;;;;;1.00;0.40;;;;;;;8.35;100.00;98203.17;105996;1260;97919;-78
2023/11/04 02:42:13;;;;;;;1.60;0.70;;;;;;;8.34;100.00;98213.02;105791;1262;98054;-79
2023/11/04 02:44:59;;;;;;;1.10;0.80;;;;;;;8.30;100.00;98215.88;105963;1260;101362;-79
2023/11/04 02:47:44;;;;;;;1.70;0.60;;;;;;;8.28;100.00;98220.37;105951;1260;99137;-79
2023/11/04 02:50:30;;;;;;;2.00;0.70;;;;;;;8.29;100.00;98221.92;105915;1257;99132;-79
2023/11/04 02:53:16;;;;;;;1.90;0.50;;;;;;;8.28;100.00;98227.66;105887;1261;97987;-78
2023/11/04 02:56:01;;;;;;;1.70;0.80;;;;;;;8.27;100.00;98231.80;105858;1258;97942;-78
2023/11/04 02:58:47;;;;;;;0.90;0.50;;;;;;;8.27;100.00;98236.51;105771;1263;102715;-78
2023/11/04 03:01:34;;;;;;;3.40;0.70;;;;;;;8.29;100.00;98240.91;105652;1263;99158;-80
2023/11/04 03:04:20;;;;;;;1.00;0.90;;;;;;;8.30;100.00;98242.79;105755;1257;98059;-78
2023/11/04 03:07:06;;;;;;;2.40;0.70;;;;;;;8.29;100.00;98249.94;105935;1260;97880;-79
2023/11/04 03:09:51;;;;;;;1.50;0.60;;;;;;;8.30;100.00;98254.60;105928;1260;98478;-79
2023/11/04 03:12:37;;;;;;;1.50;0.80;;;;;;;8.30;100.00;98258.81;105786;1263;102982;-79
2023/11/04 03:15:22;;;;;;;1.90;1.00;;;;;;;8.32;100.00;98256.77;105881;1261;99124;-78
2023/11/04 03:18:08;;;;;;;1.50;0.90;;;;;;;8.34;100.00;98259.06;105884;1261;98800;-79
2023/11/04 03:20:54;;;;;;;0.70;0.60;;;;;;;8.34;100.00;98263.65;105874;1257;97993;-79
2023/11/04 03:23:39;;;;;;;1.60;0.90;;;;;;;8.32;100.00;98265.67;105993;1260;99145;-79
2023/11/04 03:26:25;;;;;;;1.60;1.00;;;;;;;8.31;100.00;98268.48;105987;1256;101395;-79
2023/11/04 03:29:11;;;;;;;0.80;0.80;;;;;;;8.31;100.00;98271.63;105819;1262;99100;-78
2023/11/04 03:31:56;;;;;;;1.60;1.00;;;;;;;8.31;100.00;98274.45;105840;1257;98519;-78
2023/11/04 03:34:41;;;;;;;1.70;1.20;;;;;;;8.31;100.00;98277.52;106311;1260;97888;-79
2023/11/04 03:37:27;;;;;;;1.40;1.10;;;;;;;8.32;100.00;98282.96;106272;1260;98395;-80
2023/11/04 03:40:14;;;;;;;3.00;1.10;;;;;;;8.31;100.00;98287.75;106373;1257;101544;-78
2023/11/04 03:43:00;;;;;;;1.40;0.80;;;;;;;8.32;100.00;98294.50;105925;1258;100355;-79
2023/11/04 03:45:46;;;;;;;1.10;0.90;;;;;;;8.33;100.00;98306.68;105786;1263;97965;-79
2023/11/04 03:48:31;;;;;;;2.70;1.20;;;;;;;8.33;100.00;98310.48;105665;1263;98564;-78
2023/11/04 03:51:17;;;;;;;2.10;1.00;;;;;;;8.35;100.00;98315.47;105848;1258;96570;-79
2023/11/04 03:54:03;;;;;;;1.40;1.00;;;;;;;8.35;100.00;98318.37;105979;1261;101911;-78
2023/11/04 03:56:48;;;;;;;3.50;1.20;;;;;;;8.37;100.00;98321.18;105930;1257;99088;-79
2023/11/04 03:59:34;;;;;;;1.20;1.10;;;;;;;8.39;100.00;98327.48;105886;1257;97980;-79
2023/11/04 04:02:20;;;;;;;2.00;1.20;;;;;;;8.40;100.00;98329.91;105923;1261;97976;-79
2023/11/04 04:05:06;;;;;;;1.50;1.30;;;;;;;8.42;100.00;98336.31;105950;1258;98465;-79
2023/11/04 04:07:53;;;;;;;1.70;1.30;;;;;;;8.43;100.00;98338.58;105938;1261;102428;-79
2023/11/04 04:10:38;;;;;;;1.80;1.50;;;;;;;8.42;100.00;98341.12;105768;1261;100332;-78
2023/11/04 04:13:23;;;;;;;2.40;1.70;;;;;;;8.41;100.00;98340.08;105873;1258;97962;-78
2023/11/04 04:16:10;;;;;;;1.70;1.60;;;;;;;8.41;100.00;98345.45;105966;1257;97985;-79
2023/11/04 04:18:55;;;;;;;1.80;1.30;;;;;;;8.39;100.00;98344.94;105989;1257;99353;-79
2023/11/04 04:21:41;;;;;;;2.20;1.20;;;;;;;8.39;100.00;98346.21;105893;1258;101399;-79
2023/11/04 04:24:27;;;;;;;1.50;1.20;;;;;;;8.39;100.00;98345.67;105898;1261;99873;-78
2023/11/04 04:27:12;;;;;;;2.30;1.20;;;;;;;8.39;100.00;98347.53;105938;1260;98671;-79
2023/11/04 04:29:58;;;;;;;0.80;0.80;;;;;;;8.37;100.00;98350.85;105873;1260;97957;-79
2023/11/04 04:32:44;;;;;;;3.10;1.30;;;;;;;8.36;100.00;98359.68;105986;1260;97869;-78
2023/11/04 04:35:30;;;;;;;1.20;1.10;;;;;;;8.36;100.00;98369.77;105964;1260;101702;-78
2023/11/04 04:38:16;;;;;;;1.80;1.50;;;;;;;8.37;100.00;98376.05;105799;1264;99338;-79
2023/11/04 04:41:02;;;;;;;2.10;1.30;;;;;;;8.39;100.00;98378.69;105970;1260;99467;-79
2023/11/04 04:43:48;;;;;;;1.90;1.50;;;;;;;8.40;100.00;98381.70;105943;1258;98636;-79
2023/11/04 04:46:38;;;;;;;4.30;1.40;;;;;;;8.42;100.00;98383.58;105954;1262;97953;-79
2023/11/04 04:49:23;;;;;;;2.40;1.40;;;;;;;8.41;100.00;98387.52;105921;1257;101390;-79
2023/11/04 04:52:10;;;;;;;2.60;1.50;;;;;;;8.40;100.00;98390.29;105958;1260;99194;-78
2023/11/04 04:54:57;;;;;;;1.90;1.60;;;;;;;8.39;100.00;98391.92;105906;1256;98253;-80
2023/11/04 04:57:43;;;;;;;2.40;1.50;;;;;;;8.40;100.00;98397.98;105854;1263;98015;-80
2023/11/04 05:00:30;;;;;;;2.00;1.50;;;;;;;8.42;100.00;98400.35;105743;1258;98962;-79
2023/11/04 05:03:15;;;;;;;2.00;1.70;;;;;;;8.44;100.00;98406.90;106066;1257;101425;-80
2023/11/04 05:06:01;;;;;;;3.90;1.60;;;;;;;8.45;100.00;98411.73;105866;1262;100230;-78
2023/11/04 05:08:46;;;;;;;2.20;1.50;;;;;;;8.46;100.00;98418.52;105842;1256;97936;-78
2023/11/04 05:11:32;;;;;;;1.90;1.50;;;;;;;8.46;100.00;98426.27;105860;1257;97881;-79
2023/11/04 05:14:18;;;;;;;2.20;1.50;;;;;;;8.48;100.00;98430.15;105970;1260;97851;-79
2023/11/04 05:17:03;;;;;;;4.50;1.70;;;;;;;8.48;100.00;98433.20;106100;1256;101322;-78
2023/11/04 05:19:50;;;;;;;1.70;1.50;;;;;;;8.49;100.00;98434.36;105983;1273;99126;-80
2023/11/04 05:22:36;;;;;;;2.60;1.70;;;;;;;8.48;100.00;98437.65;106594;1257;97998;-79
2023/11/04 05:25:22;;;;;;;2.30;1.60;;;;;;;8.48;100.00;98444.63;105888;1257;98823;-79
2023/11/04 05:28:07;;;;;;;2.10;1.40;;;;;;;8.49;100.00;98446.80;105621;1260;99629;-79
2023/11/04 05:30:53;;;;;;;3.60;1.50;;;;;;;8.50;100.00;98454.34;105550;1256;102195;-78
2023/11/04 05:33:41;;;;;;;1.90;1.50;;;;;;;8.50;100.00;98463.52;105762;1261;99120;-79
2023/11/04 05:36:27;;;;;;;2.70;1.50;;;;;;;8.52;100.00;98471.16;106033;1260;99007;-80
2023/11/04 05:39:13;;;;;;;2.00;1.20;;;;;;;8.53;100.00;98474.29;106083;1258;97937;-78
2023/11/04 05:41:59;;;;;;;2.30;1.60;;;;;;;8.54;100.00;98482.31;106137;1260;99550;-79
2023/11/04 05:44:44;;;;;;;2.80;1.20;;;;;;;8.56;100.00;98489.16;105667;1260;101367;-79
2023/11/04 05:47:32;;;;;;;2.70;1.60;;;;;;;8.59;100.00;98497.28;105773;1260;99089;-79
2023/11/04 05:50:17;;;;;;;2.80;1.70;;;;;;;8.61;100.00;98498.17;106064;1256;99098;-80
2023/11/04 05:53:03;;;;;;;2.60;1.50;;;;;;;8.62;100.00;98504.88;106527;1256;97861;-78
2023/11/04 05:55:49;;;;;;;1.60;1.30;;;;;;;8.63;100.00;98511.97;105821;1260;98552;-79
2023/11/04 05:58:34;;;;;;;4.40;1.50;;;;;;;8.64;100.00;98513.64;105652;1262;102240;-78
2023/11/04 06:01:24;;;;;;;3.80;1.50;;;;;;;8.66;100.00;98514.10;105939;1257;100416;-78
2023/11/04 06:04:10;;;;;;;2.40;1.60;;;;;;;8.66;100.00;98516.05;105904;1260;97921;-79
2023/11/04 06:06:55;;;;;;;1.90;1.50;;;;;;;8.67;100.00;98520.38;105922;1258;97862;-80
2023/11/04 06:09:40;;;;;;;2.20;1.50;;;;;;;8.67;100.00;98524.49;105774;1260;98470;-78
2023/11/04 06:12:27;;;;;;;2.10;1.50;;;;;;;8.66;100.00;98526.23;105788;1256;103073;-78
2023/11/04 06:15:13;;;;;;;2.30;1.80;;;;;;;8.66;100.00;98524.95;105846;1258;99291;-78
2023/11/04 06:17:58;;;;;;;1.60;1.40;;;;;;;8.66;100.00;98526.59;105862;1260;98383;-78
2023/11/04 06:20:44;;;;;;;1.70;1.40;;;;;;;8.66;100.00;98531.30;105878;1257;97897;-78
2023/11/04 06:23:30;;;;;;;3.40;2.10;;;;;;;8.67;100.00;98533.65;105911;1256;98777;-78
2023/11/04 06:26:21;;;;;;;2.90;1.80;;;;;;;8.70;100.00;98539.36;106065;1256;102627;-79
2023/11/04 06:29:07;;;;;;;4.00;2.10;;;;;;;8.71;100.00;98547.52;106557;1256;99132;-78
2023/11/04 06:31:53;;;;;;;2.60;2.00;;;;;;;8.72;100.00;98547.96;105815;1257;99058;-79
2023/11/04 06:34:39;;;;;;;2.10;1.70;;;;;;;8.74;100.00;98549.83;105822;1256;98046;-78
2023/11/04 06:37:25;;;;;;;4.00;1.90;;;;;;;8.75;100.00;98551.23;105924;1256;98403;-77
2023/11/04 06:40:12;;;;;;;3.50;2.00;;;;;;;8.75;100.00;98553.98;106190;1256;102674;-80
2023/11/04 06:42:58;;;;;;;4.20;2.10;;;;;;;8.76;100.00;98557.48;106818;1261;100176;-80
2023/11/04 06:45:44;;;;;;;4.00;2.10;;;;;;;8.77;100.00;98558.41;106730;1257;98993;-79
2023/11/04 06:48:31;;;;;;;3.40;1.90;;;;;;;8.78;100.00;98558.12;106719;1256;99264;-79
2023/11/04 06:51:20;;;;;;;3.20;1.80;;;;;;;8.78;100.00;98558.93;105989;1256;98021;-78
2023/11/04 06:54:06;;;;;;;2.20;1.80;;;;;;;8.79;100.00;98563.88;105808;1256;102801;-77
2023/11/04 06:56:54;;;;;;;2.80;1.80;;;;;;;8.80;100.00;98572.28;105829;1257;99833;-78
2023/11/04 06:59:40;;;;;;;3.10;2.40;;;;;;;8.81;100.00;98580.64;105701;1256;97883;-78
2023/11/04 07:02:26;;;;;;;1.60;1.50;;;;;;;8.82;100.00;98580.99;105868;1261;97948;-78
2023/11/04 07:05:12;;;;;;;2.20;1.70;;;;;;;8.82;100.00;98590.16;105876;1260;98621;-79
2023/11/04 07:07:57;;;;;;;2.80;1.70;;;;;;;8.81;100.00;98595.27;105598;1264;102685;-79
2023/11/04 07:10:45;;;;;;;5.80;2.80;;;;;;;8.80;100.00;98597.91;105862;1260;99176;-77
2023/11/04 07:13:30;;;;;;;3.20;2.10;;;;;;;8.79;100.00;98596.08;105812;1256;98111;-80
2023/11/04 07:16:16;;;;;;;3.80;2.10;;;;;;;8.80;100.00;98592.65;105925;1256;98896;-79
2023/11/04 07:19:02;;;;;;;3.50;2.30;;;;;;;8.81;100.00;98592.52;105757;1259;98150;-78
2023/11/04 07:21:47;;;;;;;7.80;2.30;;;;;;;8.81;100.00;98597.86;105831;1256;101327;-79
2023/11/04 07:24:35;;;;;;;5.20;2.60;;;;;;;8.82;100.00;98601.09;105764;1256;99304;-78
2023/11/04 07:27:21;;;;;;;4.70;2.40;;;;;;;8.84;100.00;98600.53;105855;1261;98029;-78
2023/11/04 07:30:07;;;;;;;3.80;2.50;;;;;;;8.87;100.00;98604.08;105784;1257;97955;-78
2023/11/04 07:32:53;;;;;;;4.70;2.70;;;;;;;8.89;100.00;98612.27;105874;1256;97972;-78
2023/11/04 07:35:39;;;;;;;5.20;2.60;;;;;;;8.92;100.00;98617.85;105733;1263;101388;-79
2023/11/04 07:38:24;;;;;;;3.90;2.50;;;;;;;8.95;100.00;98618.10;105850;1256;99865;-78
2023/11/04 07:41:10;;;;;;;4.50;2.60;;;;;;;8.97;100.00;98622.05;105852;1257;99011;-79
2023/11/04 07:43:55;;;;;;;3.70;2.60;;;;;;;8.98;100.00;98628.42;105861;1256;98078;-78
2023/11/04 07:46:42;;;;;;;4.80;2.80;;;;;;;9.00;100.00;98634.02;106344;1256;97899;-78
2023/11/04 07:49:27;;;;;;;6.20;2.50;;;;;;;9.01;100.00;98644.36;105850;1262;101381;-78
2023/11/04 07:52:13;;;;;;;3.50;2.90;;;;;;;9.03;100.00;98647.54;105828;1260;100507;-78
2023/11/04 07:54:59;;;;;;;4.40;3.20;;;;;;;9.06;100.00;98651.25;105988;1260;98469;-77
2023/11/04 07:57:44;;;;;;;4.80;3.10;;;;;;;9.08;100.00;98649.34;105573;1262;97960;-79
2023/11/04 08:00:30;;;;;;;8.90;3.10;;;;;;;9.10;100.00;98643.55;105810;1256;97983;-78
2023/11/04 08:03:16;;;;;;;4.10;3.00;;;;;;;9.13;100.00;98644.33;105697;1257;101822;-77
2023/11/04 08:06:01;;;;;;;3.50;2.30;;;;;;;9.15;100.00;98643.77;105822;1257;99372;-79
2023/11/04 08:08:46;;;;;;;4.10;2.80;;;;;;;9.18;100.00;98642.63;105764;1256;98021;-78
2023/11/04 08:11:32;;;;;;;4.50;2.90;;;;;;;9.21;100.00;98639.17;105700;1256;98162;-78
2023/11/04 08:14:18;;;;;;;4.70;2.80;;;;;;;9.23;100.00;98643.25;105933;1260;98495;-79
2023/11/04 08:17:03;;;;;;;5.20;2.60;;;;;;;9.27;100.00;98648.43;105796;1256;101337;-78
2023/11/04 08:19:50;;;;;;;4.80;3.00;;;;;;;9.32;100.00;98650.81;105812;1256;99289;-78
2023/11/04 08:22:39;;;;;;;7.30;4.70;;;;;;;9.37;100.00;98647.85;105789;1259;99180;-78
2023/11/04 08:25:24;;;;;;;11.90;7.00;;;;;;;9.40;100.00;98651.88;105828;1257;98586;-78
2023/11/04 08:28:09;;;;;;;8.30;4.40;;;;;;;9.43;100.00;98648.86;106017;1256;98381;-79
2023/11/04 08:30:55;;;;;;;6.20;4.40;;;;;;;9.45;100.00;98654.52;106206;1256;101785;-80
2023/11/04 08:33:41;;;;;;;5.00;3.90;;;;;;;9.49;100.00;98650.40;106741;1256;99057;-80
2023/11/04 08:36:27;;;;;;;7.70;5.40;;;;;;;9.52;100.00;98651.17;106784;1256;97786;-79
2023/11/04 08:39:12;;;;;;;6.30;4.60;;;;;;;9.55;100.00;98653.73;106665;1258;97927;-79
2023/11/04 08:41:58;;;;;;;13.30;9.60;;;;;;;9.57;100.00;98660.94;106208;1262;98117;-79
2023/11/04 08:44:44;;;;;;;22.30;15.90;;;;;;;9.59;100.00;98664.48;106287;1256;101375;-79
2023/11/04 08:47:30;;;;;;;15.40;9.50;;;;;;;9.62;100.00;98666.04;106399;1261;99070;-81
2023/11/04 08:50:15;;;;;;;9.00;5.60;;;;;;;9.64;100.00;98669.46;105846;1256;99236;-79
2023/11/04 08:53:01;;;;;;;11.20;7.50;;;;;;;9.64;100.00;98674.27;105865;1256;98428;-78
2023/11/04 08:55:47;;;;;;;8.50;4.10;;;;;;;9.65;100.00;98673.07;105697;1256;98011;-79
2023/11/04 08:58:34;;;;;;;5.30;4.20;;;;;;;9.68;100.00;98673.80;106331;1256;101433;-80
2023/11/04 09:01:22;;;;;;;7.40;5.00;;;;;;;9.72;100.00;98676.73;106633;1260;99073;-79
2023/11/04 09:04:08;;;;;;;9.60;5.90;;;;;;;9.75;100.00;98685.01;106446;1260;99077;-79
2023/11/04 09:06:53;;;;;;;23.70;12.20;;;;;;;9.79;100.00;98692.60;105656;1256;98606;-79
2023/11/04 09:09:39;;;;;;;27.00;14.90;;;;;;;9.84;100.00;98694.14;105982;1260;97987;-80
2023/11/04 09:12:25;;;;;;;18.10;9.60;;;;;;;9.89;100.00;98692.16;105742;1260;101375;-77
2023/11/04 09:15:10;;;;;;;14.40;6.90;;;;;;;9.96;100.00;98692.98;105857;1260;99099;-79
2023/11/04 09:17:56;;;;;;;7.80;4.90;;;;;;;10.03;100.00;98690.76;106053;1260;98580;-81
2023/11/04 09:20:42;;;;;;;6.00;4.20;;;;;;;10.13;100.00;98691.98;106222;1256;97979;-83
2023/11/04 09:23:28;;;;;;;5.60;3.30;;;;;;;10.24;100.00;98692.20;106236;1256;98348;-83
2023/11/04 09:26:14;;;;;;;7.10;2.90;;;;;;;10.29;100.00;98695.68;105992;1256;102753;-85
2023/11/04 09:29:00;;;;;;;6.10;3.60;;;;;;;10.30;100.00;98697.80;105887;1256;99896;-82
2023/11/04 09:31:45;;;;;;;6.90;6.10;;;;;;;10.31;100.00;98701.77;106079;1260;97970;-81
2023/11/04 09:34:31;;;;;;;7.40;4.60;;;;;;;10.34;100.00;98700.36;106067;1264;98042;-85
2023/11/04 09:37:17;;;;;;;6.60;3.30;;;;;;;10.40;100.00;98701.20;106023;1256;98553;-83
2023/11/04 09:40:03;;;;;;;9.60;5.30;;;;;;;10.46;100.00;98697.98;106070;1260;101528;-82
2023/11/04 09:42:49;;;;;;;7.00;3.60;;;;;;;10.54;100.00;98694.67;106373;1260;99799;-83
2023/11/04 09:45:36;;;;;;;5.60;3.00;;;;;;;10.58;100.00;98693.66;105826;1256;99408;-82
2023/11/04 09:48:22;;;;;;;6.70;3.70;;;;;;;10.62;100.00;98690.91;105865;1256;98105;-82
2023/11/04 09:51:15;;;;;;;6.50;3.40;;;;;;;10.67;100.00;98688.02;106119;1256;98416;-82
2023/11/04 09:54:02;;;;;;;6.10;3.10;;;;;;;10.71;100.00;98688.23;105835;1256;101542;-81
2023/11/04 09:56:48;;;;;;;4.40;2.60;;;;;;;10.77;99.99;98680.88;106002;1256;99215;-84
2023/11/04 09:59:35;;;;;;;4.10;2.80;;;;;;;10.87;100.00;98676.31;105970;1256;99272;-81
2023/11/04 10:02:20;;;;;;;8.50;2.70;;;;;;;10.97;100.00;98673.80;106006;1256;97963;-82
2023/11/04 10:05:07;;;;;;;4.50;2.30;;;;;;;11.01;99.91;98678.70;106130;1260;97700;-83
2023/11/04 10:07:53;;;;;;;6.80;3.00;;;;;;;10.99;98.54;98678.02;106082;1256;101351;-83
2023/11/04 10:10:39;;;;;;;7.60;3.40;;;;;;;10.96;97.87;98678.96;105909;1256;99081;-82
2023/11/04 10:13:25;;;;;;;5.40;2.60;;;;;;;11.00;98.71;98681.73;105957;1256;99090;-81
2023/11/04 10:16:12;;;;;;;8.70;3.00;;;;;;;11.05;98.51;98680.92;106023;1262;97967;-82
2023/11/04 10:18:57;;;;;;;5.60;3.30;;;;;;;11.08;98.59;98678.30;105940;1262;97974;-83
2023/11/04 10:21:44;;;;;;;4.80;2.90;;;;;;;11.11;98.40;98679.78;106245;1256;102052;-81
2023/11/04 10:24:30;;;;;;;4.40;2.30;;;;;;;11.13;98.08;98678.34;105850;1261;99112;-85
2023/11/04 10:27:17;;;;;;;5.20;2.50;;;;;;;11.15;97.72;98677.30;106092;1256;107704;-85
2023/11/04 10:30:03;;;;;;;3.70;2.00;;;;;;;11.17;97.79;98683.98;106078;1256;97877;-84
2023/11/04 10:32:53;;;;;;;6.40;2.80;;;;;;;11.19;97.52;98686.54;106524;1256;97856;-79
2023/11/04 10:35:41;;;;;;;5.50;2.80;;;;;;;11.21;97.36;98691.23;106361;1256;102759;-78
2023/11/04 10:38:27;;;;;;;6.10;2.50;;;;;;;11.24;97.60;98695.15;105722;1257;99139;-78
2023/11/04 10:41:17;;;;;;;4.90;2.10;;;;;;;11.29;97.65;98694.73;105659;1260;99430;-77
2023/11/04 10:44:09;;;;;;;6.90;2.30;;;;;;;11.32;97.16;98689.05;105715;1256;98606;-78
2023/11/04 10:47:10;;;;;;;6.30;2.80;;;;;;;11.34;96.54;98688.87;105589;1256;98579;-77
2023/11/04 10:50:07;;;;;;;3.90;2.00;;;;;;;11.33;95.69;98684.72;105949;1256;102550;-78
2023/11/04 10:53:38;;;;;;;7.70;2.70;;;;;;;11.28;95.36;98678.15;105791;1257;100129;-79
2023/11/04 10:56:36;;;;;;;7.30;3.20;;;;;;;11.26;95.35;98675.63;105586;1257;99033;-79
2023/11/04 10:59:31;;;;;;;6.30;2.80;;;;;;;11.29;95.80;98674.99;105779;1256;97953;-78
2023/11/04 11:02:17;;;;;;;9.10;2.90;;;;;;;11.34;95.83;98673.93;105682;1256;97884;-77
2023/11/04 11:05:04;;;;;;;6.20;3.20;;;;;;;11.39;95.53;98676.23;105714;1260;101377;-79
2023/11/04 11:07:49;;;;;;;7.70;3.20;;;;;;;11.43;95.34;98680.48;105481;1264;99826;-79
2023/11/04 11:10:45;;;;;;;4.20;2.50;;;;;;;11.45;94.63;98683.31;105686;1256;98298;-79
2023/11/04 11:13:35;;;;;;;6.50;2.30;;;;;;;11.43;93.79;98683.48;105878;1256;97978;-78
2023/11/04 11:16:20;;;;;;;6.80;2.60;;;;;;;11.40;93.88;98682.08;105589;1256;98053;-79
2023/11/04 11:19:08;;;;;;;6.10;2.30;;;;;;;11.42;93.94;98678.59;105771;1256;101408;-78
2023/11/04 11:21:54;;;;;;;5.10;2.80;;;;;;;11.47;94.35;98675.42;105778;1256;99751;-79
2023/11/04 11:24:48;;;;;;;11.40;3.90;;;;;;;11.55;94.45;98671.33;105555;1265;97973;-78
2023/11/04 11:27:44;;;;;;;7.10;3.90;;;;;;;11.62;94.10;98667.92;105832;1260;97965;-79
2023/11/04 11:30:44;;;;;;;6.50;3.10;;;;;;;11.64;93.46;98669.77;105899;1256;97983;-80
2023/11/04 11:33:31;;;;;;;7.50;2.70;;;;;;;11.65;93.00;98673.99;105611;1256;102671;-79
2023/11/04 11:36:16;;;;;;;6.50;3.00;;;;;;;11.70;92.99;98675.80;105642;1260;100359;-78
2023/11/04 11:39:02;;;;;;;7.20;2.90;;;;;;;11.75;92.79;98674.95;105662;1256;97879;-79
2023/11/04 11:41:48;;;;;;;9.20;5.90;;;;;;;11.84;92.83;98674.36;105796;1260;98537;-78
2023/11/04 11:44:33;;;;;;;6.90;4.20;;;;;;;11.89;92.71;98672.20;105763;1256;97943;-78
2023/11/04 11:47:19;;;;;;;9.80;4.10;;;;;;;11.93;92.44;98676.98;105642;1259;125946;-77
2023/11/04 11:50:06;;;;;;;5.10;3.30;;;;;;;11.94;91.76;98679.52;105831;1261;99407;-78
2023/11/04 11:52:51;;;;;;;7.50;4.40;;;;;;;11.94;91.53;98678.36;105994;1256;98640;-80
2023/11/04 11:55:40;;;;;;;4.10;3.70;;;;;;;11.95;91.30;98679.59;105863;1261;98075;-79
2023/11/04 11:58:28;;;;;;;5.00;3.50;;;;;;;11.95;91.36;98676.48;106074;1260;97058;-80
2023/11/04 12:01:15;;;;;;;5.10;2.70;;;;;;;11.96;91.44;98674.73;106216;1257;101325;-79
2023/11/04 12:04:04;;;;;;;6.50;4.00;;;;;;;11.97;91.26;98671.69;105867;1256;100677;-79
2023/11/04 12:06:51;;;;;;;10.40;4.00;;;;;;;11.96;90.88;98668.83;105768;1262;98061;-80
2023/11/04 12:09:37;;;;;;;8.30;3.80;;;;;;;11.94;90.92;98663.39;105533;1262;97986;-78
2023/11/04 12:12:22;;;;;;;8.10;3.00;;;;;;;11.95;91.02;98658.35;105876;1256;98398;-78
2023/11/04 12:15:12;;;;;;;5.60;2.70;;;;;;;11.97;90.54;98662.20;105706;1261;101415;-84
2023/11/04 12:18:01;;;;;;;7.70;2.50;;;;;;;11.94;89.57;98661.23;106106;1261;99168;-82
2023/11/04 12:20:47;;;;;;;4.90;3.10;;;;;;;11.92;89.72;98660.55;105990;1256;98080;-82
2023/11/04 12:23:33;;;;;;;6.60;3.80;;;;;;;11.92;89.73;98661.25;106271;1260;97900;-81
2023/11/04 12:26:29;;;;;;;8.80;3.30;;;;;;;11.96;90.42;98660.52;106354;1256;98473;-84
2023/11/04 12:29:15;;;;;;;8.00;3.40;;;;;;;12.05;90.71;98658.41;106120;1260;101424;-85
2023/11/04 12:32:03;;;;;;;6.60;4.50;;;;;;;12.15;90.43;98657.02;106254;1263;100354;-82
2023/11/04 12:34:52;;;;;;;7.50;4.10;;;;;;;12.19;89.90;98659.05;106074;1262;99017;-82
2023/11/04 12:37:37;;;;;;;7.30;3.00;;;;;;;12.19;89.42;98660.25;106050;1262;97976;-83
2023/11/04 12:40:28;;;;;;;8.60;3.10;;;;;;;12.18;89.27;98661.16;106089;1258;98447;-82
2023/11/04 12:43:13;;;;;;;4.90;3.20;;;;;;;12.15;88.93;98662.62;105943;1262;101335;-81
2023/11/04 12:45:59;;;;;;;9.00;3.30;;;;;;;12.12;89.26;98662.74;105983;1262;99535;-82
2023/11/04 12:48:45;;;;;;;8.10;2.90;;;;;;;12.12;89.48;98664.92;106067;1264;99220;-85
2023/11/04 12:51:32;;;;;;;7.90;2.60;;;;;;;12.10;89.14;98665.00;106179;1257;98861;-87